sensor_id;sensor_type;location;lat;lon;timestamp;temperature;humidity
12043;DHT22;6082;49.306;12.862;2023-07-13T00:00:26;22.00;99.90
12043;DHT22;6082;49.306;12.862;2023-07-13T00:02:52;21.90;99.90
12043;DHT22;6082;49.306;12.862;2023-07-13T00:05:21;21.90;99.90
12043;DHT22;6082;49.306;12.862;2023-07-13T00:07:47;21.90;99.90
12043;DHT22;6082;49.306;12.862;2023-07-13T00:10:14;21.90;99.90
12043;DHT22;6082;49.306;12.862;2023-07-13T00:12:40;21.90;99.90
12043;DHT22;6082;49.306;12.862;2023-07-13T00:15:11;21.90;99.90
12043;DHT22;6082;49.306;12.862;2023-07-13T00:17:37;21.90;99.90
12043;DHT22;6082;49.306;12.862;2023-07-13T00:20:05;21.90;99.90
12043;DHT22;6082;49.306;12.862;2023-07-13T00:22:31;21.90;99.90
12043;DHT22;6082;49.306;12.862;2023-07-13T00:24:56;21.90;99.90
12043;DHT22;6082;49.306;12.862;2023-07-13T00:27:23;21.90;99.90
12043;DHT22;6082;49.306;12.862;2023-07-13T00:29:49;21.90;99.90
12043;DHT22;6082;49.306;12.862;2023-07-13T00:32:14;21.90;99.90
12043;DHT22;6082;49.306;12.862;2023-07-13T00:34:40;21.80;99.90
12043;DHT22;6082;49.306;12.862;2023-07-13T00:37:07;21.80;99.90
12043;DHT22;6082;49.306;12.862;2023-07-13T00:39:34;21.80;99.90
12043;DHT22;6082;49.306;12.862;2023-07-13T00:42:01;21.80;99.90
12043;DHT22;6082;49.306;12.862;2023-07-13T00:44:27;21.80;99.90
12043;DHT22;6082;49.306;12.862;2023-07-13T00:46:53;21.80;99.90
12043;DHT22;6082;49.306;12.862;2023-07-13T00:49:20;21.80;99.90
12043;DHT22;6082;49.306;12.862;2023-07-13T00:54:24;21.80;99.90
12043;DHT22;6082;49.306;12.862;2023-07-13T00:56:54;21.80;99.90
12043;DHT22;6082;49.306;12.862;2023-07-13T00:59:21;21.70;99.90
12043;DHT22;6082;49.306;12.862;2023-07-13T01:01:49;21.80;99.90
12043;DHT22;6082;49.306;12.862;2023-07-13T01:04:15;21.70;99.90
12043;DHT22;6082;49.306;12.862;2023-07-13T01:06:41;21.70;99.90
12043;DHT22;6082;49.306;12.862;2023-07-13T01:09:10;21.70;99.90
12043;DHT22;6082;49.306;12.862;2023-07-13T01:11:36;21.70;99.90
12043;DHT22;6082;49.306;12.862;2023-07-13T01:14:03;21.70;99.90
12043;DHT22;6082;49.306;12.862;2023-07-13T01:16:31;21.60;99.90
12043;DHT22;6082;49.306;12.862;2023-07-13T01:18:58;21.60;99.90
12043;DHT22;6082;49.306;12.862;2023-07-13T01:21:25;21.60;99.90
12043;DHT22;6082;49.306;12.862;2023-07-13T01:23:51;21.60;99.90
12043;DHT22;6082;49.306;12.862;2023-07-13T01:26:17;21.60;99.90
12043;DHT22;6082;49.306;12.862;2023-07-13T01:28:43;21.60;99.90
12043;DHT22;6082;49.306;12.862;2023-07-13T01:31:09;21.50;99.90
12043;DHT22;6082;49.306;12.862;2023-07-13T01:33:37;21.50;99.90
12043;DHT22;6082;49.306;12.862;2023-07-13T01:36:05;21.50;99.90
12043;DHT22;6082;49.306;12.862;2023-07-13T01:38:33;21.50;99.90
12043;DHT22;6082;49.306;12.862;2023-07-13T01:40:59;21.50;99.90
12043;DHT22;6082;49.306;12.862;2023-07-13T01:43:25;21.40;99.90
12043;DHT22;6082;49.306;12.862;2023-07-13T01:45:51;21.40;99.90
12043;DHT22;6082;49.306;12.862;2023-07-13T01:48:17;21.40;99.90
12043;DHT22;6082;49.306;12.862;2023-07-13T01:50:42;21.40;99.90
12043;DHT22;6082;49.306;12.862;2023-07-13T01:53:09;21.40;99.90
12043;DHT22;6082;49.306;12.862;2023-07-13T01:55:35;21.40;99.90
12043;DHT22;6082;49.306;12.862;2023-07-13T01:58:01;21.40;99.90
12043;DHT22;6082;49.306;12.862;2023-07-13T02:00:27;21.40;99.90
12043;DHT22;6082;49.306;12.862;2023-07-13T02:02:53;21.40;99.90
12043;DHT22;6082;49.306;12.862;2023-07-13T02:05:19;21.30;99.90
12043;DHT22;6082;49.306;12.862;2023-07-13T02:07:45;21.30;99.90
12043;DHT22;6082;49.306;12.862;2023-07-13T02:10:11;21.30;99.90
12043;DHT22;6082;49.306;12.862;2023-07-13T02:12:38;21.30;99.90
12043;DHT22;6082;49.306;12.862;2023-07-13T02:15:04;21.30;99.90
12043;DHT22;6082;49.306;12.862;2023-07-13T02:17:30;21.20;99.90
12043;DHT22;6082;49.306;12.862;2023-07-13T02:19:56;21.20;99.90
12043;DHT22;6082;49.306;12.862;2023-07-13T02:22:22;21.20;99.90
12043;DHT22;6082;49.306;12.862;2023-07-13T02:24:48;21.20;99.90
12043;DHT22;6082;49.306;12.862;2023-07-13T02:27:14;21.20;99.90
12043;DHT22;6082;49.306;12.862;2023-07-13T02:29:40;21.20;99.90
12043;DHT22;6082;49.306;12.862;2023-07-13T02:32:06;21.10;99.90
12043;DHT22;6082;49.306;12.862;2023-07-13T02:34:32;21.10;99.90
12043;DHT22;6082;49.306;12.862;2023-07-13T02:36:57;21.10;99.90
12043;DHT22;6082;49.306;12.862;2023-07-13T02:39:23;21.10;99.90
12043;DHT22;6082;49.306;12.862;2023-07-13T02:41:49;21.10;99.90
12043;DHT22;6082;49.306;12.862;2023-07-13T02:44:15;21.00;99.90
12043;DHT22;6082;49.306;12.862;2023-07-13T02:46:41;21.00;99.90
12043;DHT22;6082;49.306;12.862;2023-07-13T02:49:07;21.00;99.90
12043;DHT22;6082;49.306;12.862;2023-07-13T02:51:33;21.00;99.90
12043;DHT22;6082;49.306;12.862;2023-07-13T02:54:00;21.00;99.90
12043;DHT22;6082;49.306;12.862;2023-07-13T02:56:28;20.90;99.90
12043;DHT22;6082;49.306;12.862;2023-07-13T02:58:54;20.90;99.90
12043;DHT22;6082;49.306;12.862;2023-07-13T03:01:20;20.90;99.90
12043;DHT22;6082;49.306;12.862;2023-07-13T03:03:48;20.90;99.90
12043;DHT22;6082;49.306;12.862;2023-07-13T03:06:15;20.90;99.90
12043;DHT22;6082;49.306;12.862;2023-07-13T03:08:42;20.90;99.90
12043;DHT22;6082;49.306;12.862;2023-07-13T03:11:17;20.80;99.90
12043;DHT22;6082;49.306;12.862;2023-07-13T03:13:43;20.80;99.90
12043;DHT22;6082;49.306;12.862;2023-07-13T03:16:10;20.80;99.90
12043;DHT22;6082;49.306;12.862;2023-07-13T03:18:37;20.80;99.90
12043;DHT22;6082;49.306;12.862;2023-07-13T03:21:04;20.80;99.90
12043;DHT22;6082;49.306;12.862;2023-07-13T03:23:30;20.80;99.90
12043;DHT22;6082;49.306;12.862;2023-07-13T03:26:08;20.80;99.90
12043;DHT22;6082;49.306;12.862;2023-07-13T03:28:33;20.70;99.90
12043;DHT22;6082;49.306;12.862;2023-07-13T03:31:04;20.70;99.90
12043;DHT22;6082;49.306;12.862;2023-07-13T03:33:31;20.70;99.90
12043;DHT22;6082;49.306;12.862;2023-07-13T03:35:57;20.70;99.90
12043;DHT22;6082;49.306;12.862;2023-07-13T03:38:23;20.70;99.90
12043;DHT22;6082;49.306;12.862;2023-07-13T03:40:49;20.60;99.90
12043;DHT22;6082;49.306;12.862;2023-07-13T03:43:14;20.60;99.90
12043;DHT22;6082;49.306;12.862;2023-07-13T03:45:40;20.60;99.90
12043;DHT22;6082;49.306;12.862;2023-07-13T03:48:06;20.60;99.90
12043;DHT22;6082;49.306;12.862;2023-07-13T03:50:32;20.60;99.90
12043;DHT22;6082;49.306;12.862;2023-07-13T03:52:59;20.60;99.90
12043;DHT22;6082;49.306;12.862;2023-07-13T03:55:25;20.50;99.90
12043;DHT22;6082;49.306;12.862;2023-07-13T03:57:57;20.50;99.90
12043;DHT22;6082;49.306;12.862;2023-07-13T04:00:23;20.50;99.90
12043;DHT22;6082;49.306;12.862;2023-07-13T04:02:49;20.50;99.90
12043;DHT22;6082;49.306;12.862;2023-07-13T04:05:15;20.50;99.90
12043;DHT22;6082;49.306;12.862;2023-07-13T04:07:41;20.50;99.90
12043;DHT22;6082;49.306;12.862;2023-07-13T04:10:07;20.50;99.90
12043;DHT22;6082;49.306;12.862;2023-07-13T04:12:33;20.50;99.90
12043;DHT22;6082;49.306;12.862;2023-07-13T04:14:59;20.50;99.90
12043;DHT22;6082;49.306;12.862;2023-07-13T04:17:25;20.50;99.90
12043;DHT22;6082;49.306;12.862;2023-07-13T04:19:50;20.50;99.90
12043;DHT22;6082;49.306;12.862;2023-07-13T04:22:16;20.50;99.90
12043;DHT22;6082;49.306;12.862;2023-07-13T04:24:42;20.50;99.90
12043;DHT22;6082;49.306;12.862;2023-07-13T04:27:07;20.50;99.90
12043;DHT22;6082;49.306;12.862;2023-07-13T04:29:33;20.50;99.90
12043;DHT22;6082;49.306;12.862;2023-07-13T04:31:59;20.50;99.90
12043;DHT22;6082;49.306;12.862;2023-07-13T04:34:25;20.40;99.90
12043;DHT22;6082;49.306;12.862;2023-07-13T04:36:50;20.40;99.90
12043;DHT22;6082;49.306;12.862;2023-07-13T04:39:16;20.40;99.90
12043;DHT22;6082;49.306;12.862;2023-07-13T04:41:42;20.50;99.90
12043;DHT22;6082;49.306;12.862;2023-07-13T04:44:08;20.40;99.90
12043;DHT22;6082;49.306;12.862;2023-07-13T04:46:34;20.40;99.90
12043;DHT22;6082;49.306;12.862;2023-07-13T04:48:59;20.40;99.90
12043;DHT22;6082;49.306;12.862;2023-07-13T04:51:26;20.40;99.90
12043;DHT22;6082;49.306;12.862;2023-07-13T04:53:52;20.40;99.90
12043;DHT22;6082;49.306;12.862;2023-07-13T04:56:18;20.30;99.90
12043;DHT22;6082;49.306;12.862;2023-07-13T04:58:45;20.30;99.90
12043;DHT22;6082;49.306;12.862;2023-07-13T05:01:11;20.30;99.90
12043;DHT22;6082;49.306;12.862;2023-07-13T05:03:37;20.30;99.90
12043;DHT22;6082;49.306;12.862;2023-07-13T05:06:05;20.30;99.90
12043;DHT22;6082;49.306;12.862;2023-07-13T05:08:31;20.30;99.90
12043;DHT22;6082;49.306;12.862;2023-07-13T05:11:00;20.30;99.90
12043;DHT22;6082;49.306;12.862;2023-07-13T05:13:26;20.30;99.90
12043;DHT22;6082;49.306;12.862;2023-07-13T05:16:00;20.30;99.90
12043;DHT22;6082;49.306;12.862;2023-07-13T05:18:26;20.40;99.90
12043;DHT22;6082;49.306;12.862;2023-07-13T05:21:11;20.40;99.90
12043;DHT22;6082;49.306;12.862;2023-07-13T05:23:37;20.40;99.90
12043;DHT22;6082;49.306;12.862;2023-07-13T05:26:04;20.40;99.90
12043;DHT22;6082;49.306;12.862;2023-07-13T05:28:30;20.40;99.90
12043;DHT22;6082;49.306;12.862;2023-07-13T05:30:57;20.40;99.90
12043;DHT22;6082;49.306;12.862;2023-07-13T05:33:23;20.40;99.90
12043;DHT22;6082;49.306;12.862;2023-07-13T05:35:50;20.40;99.90
12043;DHT22;6082;49.306;12.862;2023-07-13T05:38:16;20.40;99.90
12043;DHT22;6082;49.306;12.862;2023-07-13T05:40:46;20.40;99.90
12043;DHT22;6082;49.306;12.862;2023-07-13T05:43:12;20.40;99.90
12043;DHT22;6082;49.306;12.862;2023-07-13T05:45:38;20.50;99.90
12043;DHT22;6082;49.306;12.862;2023-07-13T05:48:04;20.40;99.90
12043;DHT22;6082;49.306;12.862;2023-07-13T05:50:30;20.40;99.90
12043;DHT22;6082;49.306;12.862;2023-07-13T05:52:57;20.40;99.90
12043;DHT22;6082;49.306;12.862;2023-07-13T05:55:23;20.40;99.90
12043;DHT22;6082;49.306;12.862;2023-07-13T05:57:48;20.40;99.90
12043;DHT22;6082;49.306;12.862;2023-07-13T06:00:15;20.40;99.90
12043;DHT22;6082;49.306;12.862;2023-07-13T06:02:41;20.40;99.90
12043;DHT22;6082;49.306;12.862;2023-07-13T06:05:07;20.40;99.90
12043;DHT22;6082;49.306;12.862;2023-07-13T06:07:32;20.40;99.90
12043;DHT22;6082;49.306;12.862;2023-07-13T06:09:58;20.40;99.90
12043;DHT22;6082;49.306;12.862;2023-07-13T06:12:25;20.30;99.90
12043;DHT22;6082;49.306;12.862;2023-07-13T06:14:51;20.40;99.90
12043;DHT22;6082;49.306;12.862;2023-07-13T06:17:17;20.40;99.90
12043;DHT22;6082;49.306;12.862;2023-07-13T06:19:44;20.40;99.90
12043;DHT22;6082;49.306;12.862;2023-07-13T06:22:10;20.50;99.90
12043;DHT22;6082;49.306;12.862;2023-07-13T06:24:35;20.50;99.90
12043;DHT22;6082;49.306;12.862;2023-07-13T06:27:01;20.60;99.90
12043;DHT22;6082;49.306;12.862;2023-07-13T06:29:27;20.60;99.90
12043;DHT22;6082;49.306;12.862;2023-07-13T06:31:53;20.60;99.90
12043;DHT22;6082;49.306;12.862;2023-07-13T06:34:19;20.60;99.90
12043;DHT22;6082;49.306;12.862;2023-07-13T06:36:45;20.60;99.90
12043;DHT22;6082;49.306;12.862;2023-07-13T06:39:11;20.60;99.90
12043;DHT22;6082;49.306;12.862;2023-07-13T06:41:38;20.50;99.90
12043;DHT22;6082;49.306;12.862;2023-07-13T06:44:04;20.50;99.90
12043;DHT22;6082;49.306;12.862;2023-07-13T06:46:30;20.50;99.90
12043;DHT22;6082;49.306;12.862;2023-07-13T06:48:56;20.60;99.90
12043;DHT22;6082;49.306;12.862;2023-07-13T06:51:21;20.60;99.90
12043;DHT22;6082;49.306;12.862;2023-07-13T06:53:47;20.70;99.90
12043;DHT22;6082;49.306;12.862;2023-07-13T06:56:13;20.70;99.90
12043;DHT22;6082;49.306;12.862;2023-07-13T06:58:39;20.80;99.90
12043;DHT22;6082;49.306;12.862;2023-07-13T07:01:05;20.90;99.90
12043;DHT22;6082;49.306;12.862;2023-07-13T07:03:31;21.00;99.90
12043;DHT22;6082;49.306;12.862;2023-07-13T07:06:27;21.10;99.90
12043;DHT22;6082;49.306;12.862;2023-07-13T07:08:53;21.20;99.90
12043;DHT22;6082;49.306;12.862;2023-07-13T07:11:23;21.30;99.90
12043;DHT22;6082;49.306;12.862;2023-07-13T07:13:50;21.30;99.90
12043;DHT22;6082;49.306;12.862;2023-07-13T07:16:16;21.30;99.90
12043;DHT22;6082;49.306;12.862;2023-07-13T07:18:42;21.40;99.90
12043;DHT22;6082;49.306;12.862;2023-07-13T07:21:07;21.40;99.90
12043;DHT22;6082;49.306;12.862;2023-07-13T07:23:33;21.50;99.90
12043;DHT22;6082;49.306;12.862;2023-07-13T07:25:59;21.50;99.90
12043;DHT22;6082;49.306;12.862;2023-07-13T07:28:25;21.50;99.90
12043;DHT22;6082;49.306;12.862;2023-07-13T07:30:55;21.60;99.90
12043;DHT22;6082;49.306;12.862;2023-07-13T07:33:21;21.60;99.90
12043;DHT22;6082;49.306;12.862;2023-07-13T07:35:46;21.60;99.90
12043;DHT22;6082;49.306;12.862;2023-07-13T07:38:12;21.80;99.90
12043;DHT22;6082;49.306;12.862;2023-07-13T07:40:39;21.80;99.90
12043;DHT22;6082;49.306;12.862;2023-07-13T07:43:06;21.80;99.90
12043;DHT22;6082;49.306;12.862;2023-07-13T07:45:32;21.90;99.90
12043;DHT22;6082;49.306;12.862;2023-07-13T07:47:58;21.90;99.90
12043;DHT22;6082;49.306;12.862;2023-07-13T07:50:28;22.00;99.90
12043;DHT22;6082;49.306;12.862;2023-07-13T07:52:54;22.10;99.90
12043;DHT22;6082;49.306;12.862;2023-07-13T07:55:22;22.10;99.90
12043;DHT22;6082;49.306;12.862;2023-07-13T07:57:48;22.10;99.90
12043;DHT22;6082;49.306;12.862;2023-07-13T08:00:15;22.20;99.90
12043;DHT22;6082;49.306;12.862;2023-07-13T08:02:41;22.20;99.90
12043;DHT22;6082;49.306;12.862;2023-07-13T08:05:08;22.30;99.90
12043;DHT22;6082;49.306;12.862;2023-07-13T08:07:35;22.40;99.90
12043;DHT22;6082;49.306;12.862;2023-07-13T08:10:01;22.40;99.90
12043;DHT22;6082;49.306;12.862;2023-07-13T08:12:27;22.50;99.90
12043;DHT22;6082;49.306;12.862;2023-07-13T08:14:53;22.60;99.90
12043;DHT22;6082;49.306;12.862;2023-07-13T08:17:23;22.70;99.90
12043;DHT22;6082;49.306;12.862;2023-07-13T08:19:50;22.70;99.90
12043;DHT22;6082;49.306;12.862;2023-07-13T08:22:15;22.70;99.90
12043;DHT22;6082;49.306;12.862;2023-07-13T08:24:41;22.80;99.90
12043;DHT22;6082;49.306;12.862;2023-07-13T08:27:13;22.80;99.90
12043;DHT22;6082;49.306;12.862;2023-07-13T08:29:39;22.80;99.90
12043;DHT22;6082;49.306;12.862;2023-07-13T08:32:06;22.90;99.90
12043;DHT22;6082;49.306;12.862;2023-07-13T08:34:35;22.90;99.90
12043;DHT22;6082;49.306;12.862;2023-07-13T08:37:01;22.90;99.90
12043;DHT22;6082;49.306;12.862;2023-07-13T08:39:29;22.90;99.90
12043;DHT22;6082;49.306;12.862;2023-07-13T08:47:16;22.80;99.90
12043;DHT22;6082;49.306;12.862;2023-07-13T08:49:43;22.80;99.90
12043;DHT22;6082;49.306;12.862;2023-07-13T08:52:34;22.90;99.90
12043;DHT22;6082;49.306;12.862;2023-07-13T08:57:35;22.90;99.90
12043;DHT22;6082;49.306;12.862;2023-07-13T09:00:01;22.90;99.90
12043;DHT22;6082;49.306;12.862;2023-07-13T09:02:46;22.90;99.90
12043;DHT22;6082;49.306;12.862;2023-07-13T09:05:22;23.00;99.90
12043;DHT22;6082;49.306;12.862;2023-07-13T09:08:50;23.00;99.90
12043;DHT22;6082;49.306;12.862;2023-07-13T09:13:47;23.10;99.90
12043;DHT22;6082;49.306;12.862;2023-07-13T09:16:17;23.20;99.90
12043;DHT22;6082;49.306;12.862;2023-07-13T09:18:56;23.40;99.90
12043;DHT22;6082;49.306;12.862;2023-07-13T09:21:29;23.40;99.90
12043;DHT22;6082;49.306;12.862;2023-07-13T09:26:46;23.70;99.90
12043;DHT22;6082;49.306;12.862;2023-07-13T09:29:33;23.80;99.90
12043;DHT22;6082;49.306;12.862;2023-07-13T09:32:06;23.80;99.90
12043;DHT22;6082;49.306;12.862;2023-07-13T09:34:33;23.90;99.90
12043;DHT22;6082;49.306;12.862;2023-07-13T09:36:59;23.90;99.90
12043;DHT22;6082;49.306;12.862;2023-07-13T09:39:29;23.90;99.90
12043;DHT22;6082;49.306;12.862;2023-07-13T09:44:30;24.00;99.90
12043;DHT22;6082;49.306;12.862;2023-07-13T09:46:57;24.10;99.90
12043;DHT22;6082;49.306;12.862;2023-07-13T09:49:28;24.10;99.30
12043;DHT22;6082;49.306;12.862;2023-07-13T09:54:27;24.20;98.80
12043;DHT22;6082;49.306;12.862;2023-07-13T09:56:58;24.20;98.20
12043;DHT22;6082;49.306;12.862;2023-07-13T09:59:30;24.30;96.60
12043;DHT22;6082;49.306;12.862;2023-07-13T10:01:57;24.40;96.40
12043;DHT22;6082;49.306;12.862;2023-07-13T10:04:30;24.30;95.30
12043;DHT22;6082;49.306;12.862;2023-07-13T10:07:12;24.40;95.00
12043;DHT22;6082;49.306;12.862;2023-07-13T10:09:41;24.60;96.00
12043;DHT22;6082;49.306;12.862;2023-07-13T10:12:16;24.60;95.30
12043;DHT22;6082;49.306;12.862;2023-07-13T10:14:43;24.60;94.20
12043;DHT22;6082;49.306;12.862;2023-07-13T10:17:13;24.50;93.10
12043;DHT22;6082;49.306;12.862;2023-07-13T10:19:43;24.40;93.10
12043;DHT22;6082;49.306;12.862;2023-07-13T10:25:30;24.50;93.20
12043;DHT22;6082;49.306;12.862;2023-07-13T10:28:12;24.60;93.20
12043;DHT22;6082;49.306;12.862;2023-07-13T10:30:41;24.60;92.40
12043;DHT22;6082;49.306;12.862;2023-07-13T10:33:12;24.60;91.40
12043;DHT22;6082;49.306;12.862;2023-07-13T10:35:42;24.60;91.30
12043;DHT22;6082;49.306;12.862;2023-07-13T10:38:14;24.70;92.10
12043;DHT22;6082;49.306;12.862;2023-07-13T10:43:25;24.80;90.30
12043;DHT22;6082;49.306;12.862;2023-07-13T10:45:53;24.80;90.10
12043;DHT22;6082;49.306;12.862;2023-07-13T10:48:21;24.80;87.40
12043;DHT22;6082;49.306;12.862;2023-07-13T10:50:50;24.80;88.80
12043;DHT22;6082;49.306;12.862;2023-07-13T10:58:22;25.00;88.80
12043;DHT22;6082;49.306;12.862;2023-07-13T11:03:25;25.20;88.00
12043;DHT22;6082;49.306;12.862;2023-07-13T11:06:50;25.30;90.20
12043;DHT22;6082;49.306;12.862;2023-07-13T11:19:00;25.70;89.60
12043;DHT22;6082;49.306;12.862;2023-07-13T11:21:34;25.70;86.20
12043;DHT22;6082;49.306;12.862;2023-07-13T11:29:37;25.70;85.00
12043;DHT22;6082;49.306;12.862;2023-07-13T11:32:25;25.70;87.70
12043;DHT22;6082;49.306;12.862;2023-07-13T11:34:55;25.60;87.30
12043;DHT22;6082;49.306;12.862;2023-07-13T11:37:22;25.60;87.30
12043;DHT22;6082;49.306;12.862;2023-07-13T11:39:50;25.50;82.30
12043;DHT22;6082;49.306;12.862;2023-07-13T11:42:18;25.30;86.80
12043;DHT22;6082;49.306;12.862;2023-07-13T11:44:50;25.30;87.10
12043;DHT22;6082;49.306;12.862;2023-07-13T11:47:21;25.30;87.90
12043;DHT22;6082;49.306;12.862;2023-07-13T11:49:54;25.30;88.20
12043;DHT22;6082;49.306;12.862;2023-07-13T11:52:27;25.30;88.20
12043;DHT22;6082;49.306;12.862;2023-07-13T11:54:57;25.40;88.30
12043;DHT22;6082;49.306;12.862;2023-07-13T11:57:36;25.30;85.90
12043;DHT22;6082;49.306;12.862;2023-07-13T12:00:15;25.40;86.80
12043;DHT22;6082;49.306;12.862;2023-07-13T12:02:48;25.30;79.60
12043;DHT22;6082;49.306;12.862;2023-07-13T12:05:17;25.20;79.80
12043;DHT22;6082;49.306;12.862;2023-07-13T12:07:47;25.40;85.60
12043;DHT22;6082;49.306;12.862;2023-07-13T12:10:23;25.50;85.60
12043;DHT22;6082;49.306;12.862;2023-07-13T12:12:59;25.60;87.30
12043;DHT22;6082;49.306;12.862;2023-07-13T12:15:39;25.60;86.50
12043;DHT22;6082;49.306;12.862;2023-07-13T12:18:29;25.70;87.50
12043;DHT22;6082;49.306;12.862;2023-07-13T12:20:58;25.80;86.00
12043;DHT22;6082;49.306;12.862;2023-07-13T12:23:33;25.80;87.20
12043;DHT22;6082;49.306;12.862;2023-07-13T12:26:01;25.90;86.40
12043;DHT22;6082;49.306;12.862;2023-07-13T12:28:48;26.00;85.20
12043;DHT22;6082;49.306;12.862;2023-07-13T12:31:47;26.00;84.60
12043;DHT22;6082;49.306;12.862;2023-07-13T12:34:15;25.90;82.90
12043;DHT22;6082;49.306;12.862;2023-07-13T12:36:48;26.00;83.90
12043;DHT22;6082;49.306;12.862;2023-07-13T12:41:41;26.10;83.60
12043;DHT22;6082;49.306;12.862;2023-07-13T12:44:12;26.20;83.10
12043;DHT22;6082;49.306;12.862;2023-07-13T12:46:39;26.20;82.10
12043;DHT22;6082;49.306;12.862;2023-07-13T12:49:06;26.20;81.10
12043;DHT22;6082;49.306;12.862;2023-07-13T12:51:33;26.20;82.60
12043;DHT22;6082;49.306;12.862;2023-07-13T12:54:25;26.30;81.20
12043;DHT22;6082;49.306;12.862;2023-07-13T12:56:53;26.40;81.00
12043;DHT22;6082;49.306;12.862;2023-07-13T12:59:22;26.40;80.10
12043;DHT22;6082;49.306;12.862;2023-07-13T13:01:49;26.40;79.50
12043;DHT22;6082;49.306;12.862;2023-07-13T13:04:15;26.50;78.70
12043;DHT22;6082;49.306;12.862;2023-07-13T13:06:42;26.50;78.20
12043;DHT22;6082;49.306;12.862;2023-07-13T13:09:14;26.60;79.20
12043;DHT22;6082;49.306;12.862;2023-07-13T13:11:41;26.50;73.30
12043;DHT22;6082;49.306;12.862;2023-07-13T13:14:07;26.50;75.30
12043;DHT22;6082;49.306;12.862;2023-07-13T13:16:35;26.60;75.30
12043;DHT22;6082;49.306;12.862;2023-07-13T13:19:24;26.60;75.30
12043;DHT22;6082;49.306;12.862;2023-07-13T13:21:50;26.70;77.10
12043;DHT22;6082;49.306;12.862;2023-07-13T13:24:23;26.60;75.10
12043;DHT22;6082;49.306;12.862;2023-07-13T13:26:50;26.70;75.50
12043;DHT22;6082;49.306;12.862;2023-07-13T13:29:22;26.70;75.50
12043;DHT22;6082;49.306;12.862;2023-07-13T13:31:50;26.80;74.80
12043;DHT22;6082;49.306;12.862;2023-07-13T13:34:18;26.90;72.60
12043;DHT22;6082;49.306;12.862;2023-07-13T13:36:44;26.80;68.70
12043;DHT22;6082;49.306;12.862;2023-07-13T13:39:24;26.60;63.80
12043;DHT22;6082;49.306;12.862;2023-07-13T13:41:52;26.50;65.30
12043;DHT22;6082;49.306;12.862;2023-07-13T13:44:19;26.60;69.20
12043;DHT22;6082;49.306;12.862;2023-07-13T13:46:51;26.60;69.90
12043;DHT22;6082;49.306;12.862;2023-07-13T13:49:25;26.60;67.00
12043;DHT22;6082;49.306;12.862;2023-07-13T13:51:53;26.50;64.50
12043;DHT22;6082;49.306;12.862;2023-07-13T13:54:20;26.50;68.00
12043;DHT22;6082;49.306;12.862;2023-07-13T13:56:49;26.60;69.20
12043;DHT22;6082;49.306;12.862;2023-07-13T13:59:15;26.60;69.10
12043;DHT22;6082;49.306;12.862;2023-07-13T14:01:43;26.60;68.60
12043;DHT22;6082;49.306;12.862;2023-07-13T14:04:20;26.70;68.30
12043;DHT22;6082;49.306;12.862;2023-07-13T14:06:46;26.80;64.30
12043;DHT22;6082;49.306;12.862;2023-07-13T14:09:14;26.80;67.60
12043;DHT22;6082;49.306;12.862;2023-07-13T14:11:41;27.00;68.80
12043;DHT22;6082;49.306;12.862;2023-07-13T14:14:17;27.00;69.60
12043;DHT22;6082;49.306;12.862;2023-07-13T14:16:44;27.10;69.70
12043;DHT22;6082;49.306;12.862;2023-07-13T14:19:14;27.20;67.70
12043;DHT22;6082;49.306;12.862;2023-07-13T14:21:40;27.10;67.00
12043;DHT22;6082;49.306;12.862;2023-07-13T14:24:06;27.20;68.30
12043;DHT22;6082;49.306;12.862;2023-07-13T14:26:39;27.20;61.50
12043;DHT22;6082;49.306;12.862;2023-07-13T14:29:14;27.10;65.50
12043;DHT22;6082;49.306;12.862;2023-07-13T14:31:42;27.10;66.40
12043;DHT22;6082;49.306;12.862;2023-07-13T14:34:10;27.20;66.20
12043;DHT22;6082;49.306;12.862;2023-07-13T14:36:48;27.20;66.10
12043;DHT22;6082;49.306;12.862;2023-07-13T14:39:20;27.10;63.20
12043;DHT22;6082;49.306;12.862;2023-07-13T14:41:53;27.00;63.10
12043;DHT22;6082;49.306;12.862;2023-07-13T14:44:27;27.10;65.80
12043;DHT22;6082;49.306;12.862;2023-07-13T14:46:55;27.00;64.40
12043;DHT22;6082;49.306;12.862;2023-07-13T14:49:42;27.00;63.50
12043;DHT22;6082;49.306;12.862;2023-07-13T14:52:21;27.00;62.30
12043;DHT22;6082;49.306;12.862;2023-07-13T14:54:48;27.00;64.50
12043;DHT22;6082;49.306;12.862;2023-07-13T14:57:16;27.00;62.90
12043;DHT22;6082;49.306;12.862;2023-07-13T14:59:42;26.80;59.60
12043;DHT22;6082;49.306;12.862;2023-07-13T15:02:25;26.70;64.10
12043;DHT22;6082;49.306;12.862;2023-07-13T15:04:52;26.70;63.80
12043;DHT22;6082;49.306;12.862;2023-07-13T15:07:20;26.60;62.20
12043;DHT22;6082;49.306;12.862;2023-07-13T15:09:47;26.70;64.60
12043;DHT22;6082;49.306;12.862;2023-07-13T15:12:13;26.60;63.80
12043;DHT22;6082;49.306;12.862;2023-07-13T15:14:39;26.60;61.30
12043;DHT22;6082;49.306;12.862;2023-07-13T15:17:08;26.60;63.50
12043;DHT22;6082;49.306;12.862;2023-07-13T15:19:44;26.60;64.20
12043;DHT22;6082;49.306;12.862;2023-07-13T15:22:10;26.60;64.10
12043;DHT22;6082;49.306;12.862;2023-07-13T15:24:36;26.60;64.20
12043;DHT22;6082;49.306;12.862;2023-07-13T15:27:04;26.60;62.40
12043;DHT22;6082;49.306;12.862;2023-07-13T15:29:29;26.70;64.40
12043;DHT22;6082;49.306;12.862;2023-07-13T15:31:55;26.70;61.30
12043;DHT22;6082;49.306;12.862;2023-07-13T15:34:24;26.80;63.20
12043;DHT22;6082;49.306;12.862;2023-07-13T15:36:51;26.80;63.80
12043;DHT22;6082;49.306;12.862;2023-07-13T15:39:17;26.80;61.50
12043;DHT22;6082;49.306;12.862;2023-07-13T15:41:44;26.90;63.60
12043;DHT22;6082;49.306;12.862;2023-07-13T15:44:31;26.80;61.00
12043;DHT22;6082;49.306;12.862;2023-07-13T15:46:57;26.60;62.20
12043;DHT22;6082;49.306;12.862;2023-07-13T15:49:26;26.60;62.60
12043;DHT22;6082;49.306;12.862;2023-07-13T15:51:52;26.60;63.10
12043;DHT22;6082;49.306;12.862;2023-07-13T15:54:20;26.60;63.00
12043;DHT22;6082;49.306;12.862;2023-07-13T15:56:52;26.70;64.20
12043;DHT22;6082;49.306;12.862;2023-07-13T15:59:19;26.70;63.80
12043;DHT22;6082;49.306;12.862;2023-07-13T16:01:44;26.80;64.00
12043;DHT22;6082;49.306;12.862;2023-07-13T16:04:12;26.70;62.90
12043;DHT22;6082;49.306;12.862;2023-07-13T16:06:40;26.60;60.00
12043;DHT22;6082;49.306;12.862;2023-07-13T16:09:08;26.50;60.10
12043;DHT22;6082;49.306;12.862;2023-07-13T16:11:38;26.50;59.80
12043;DHT22;6082;49.306;12.862;2023-07-13T16:14:04;26.40;61.80
12043;DHT22;6082;49.306;12.862;2023-07-13T16:16:34;26.40;62.90
12043;DHT22;6082;49.306;12.862;2023-07-13T16:19:04;26.40;63.10
12043;DHT22;6082;49.306;12.862;2023-07-13T16:21:38;26.40;64.10
12043;DHT22;6082;49.306;12.862;2023-07-13T16:24:05;26.30;63.30
12043;DHT22;6082;49.306;12.862;2023-07-13T16:26:36;26.30;62.30
12043;DHT22;6082;49.306;12.862;2023-07-13T16:31:37;26.20;64.00
12043;DHT22;6082;49.306;12.862;2023-07-13T16:34:02;25.90;61.10